Time,TemperatureF,DewpointF,PressureIn,WindDirection,WindDirectionDegrees,WindSpeedMPH,WindSpeedGustMPH,Humidity,HourlyPrecipIn,Conditions,Clouds,dailyrainin,SoftwareType,DateUTC
2013-02-24 00:06:00,39.9,33.5,29.89,North,-999,-999.0,-999.0,77,-99.99,,,-99.99,,2013-02-24 07:06:00,
2013-02-24 00:12:00,39.3,33.2,29.88,North,-999,-999.0,-999.0,78,-99.99,,,-99.99,,2013-02-24 07:12:00,
2013-02-24 00:18:00,39.1,33.3,29.88,North,-999,-999.0,-999.0,79,-99.99,,,-99.99,,2013-02-24 07:18:00,
2013-02-24 00:24:00,39.6,33.0,29.88,North,-999,-999.0,-999.0,77,-99.99,,,-99.99,,2013-02-24 07:24:00,
2013-02-24 00:30:00,39.6,33.1,29.88,North,-999,-999.0,-999.0,77,-99.99,,,-99.99,,2013-02-24 07:30:00,
2013-02-24 00:36:00,39.2,33.0,29.88,North,-999,-999.0,-999.0,78,-99.99,,,-99.99,,2013-02-24 07:36:00,
2013-02-24 00:42:00,38.8,32.9,29.88,North,-999,-999.0,-999.0,79,-99.99,,,-99.99,,2013-02-24 07:42:00,
2013-02-24 00:48:00,38.6,32.8,29.89,North,-999,-999.0,-999.0,79,-99.99,,,-99.99,,2013-02-24 07:48:00,
2013-02-24 00:54:00,38.2,33.0,29.89,North,-999,-999.0,-999.0,81,-99.99,,,-99.99,,2013-02-24 07:54:00,
2013-02-24 01:00:00,38.7,32.7,29.88,North,-999,-999.0,-999.0,78,-99.99,,,-99.99,,2013-02-24 08:00:00,
2013-02-24 01:06:00,38.8,32.6,29.88,North,-999,-999.0,-999.0,78,-99.99,,,-99.99,,2013-02-24 08:06:00,
2013-02-24 01:12:00,38.7,32.6,29.89,North,-999,-999.0,-999.0,78,-99.99,,,-99.99,,2013-02-24 08:12:00,
2013-02-24 01:18:00,38.2,32.7,29.88,North,-999,-999.0,-999.0,80,-99.99,,,-99.99,,2013-02-24 08:18:00,
2013-02-24 01:24:00,37.8,32.8,29.88,North,-999,-999.0,-999.0,81,-99.99,,,-99.99,,2013-02-24 08:24:00,
2013-02-24 01:30:00,38.7,32.4,29.87,North,-999,-999.0,-999.0,77,-99.99,,,-99.99,,2013-02-24 08:30:00,
2013-02-24 01:36:00,39.2,32.2,29.90,North,-999,-999.0,-999.0,76,-99.99,,,-99.99,,2013-02-24 08:36:00,
2013-02-24 01:42:00,39.1,32.2,29.89,North,-999,-999.0,-999.0,76,-99.99,,,-99.99,,2013-02-24 08:42:00,
2013-02-24 01:48:00,39.3,32.1,29.90,North,-999,-999.0,-999.0,75,-99.99,,,-99.99,,2013-02-24 08:48:00,
2013-02-24 01:54:00,39.4,32.1,29.89,North,-999,-999.0,-999.0,75,-99.99,,,-99.99,,2013-02-24 08:54:00,
2013-02-24 02:00:00,38.8,31.7,29.88,North,-999,-999.0,-999.0,75,-99.99,,,-99.99,,2013-02-24 09:00:00,
2013-02-24 02:06:00,40.0,31.0,29.88,North,-999,-999.0,-999.0,70,-99.99,,,-99.99,,2013-02-24 09:06:00,
2013-02-24 02:12:00,39.7,31.4,29.88,North,-999,-999.0,-999.0,71,-99.99,,,-99.99,,2013-02-24 09:12:00,
2013-02-24 02:18:00,40.0,31.5,29.87,North,-999,-999.0,-999.0,71,-99.99,,,-99.99,,2013-02-24 09:18:00,
2013-02-24 02:24:00,39.7,31.6,29.87,North,-999,-999.0,-999.0,72,-99.99,,,-99.99,,2013-02-24 09:24:00,
2013-02-24 02:30:00,39.1,31.4,29.88,North,-999,-999.0,-999.0,73,-99.99,,,-99.99,,2013-02-24 09:30:00,
2013-02-24 02:36:00,39.0,31.5,29.87,North,-999,-999.0,-999.0,74,-99.99,,,-99.99,,2013-02-24 09:36:00,
2013-02-24 02:42:00,39.1,31.6,29.87,North,-999,-999.0,-999.0,74,-99.99,,,-99.99,,2013-02-24 09:42:00,
2013-02-24 02:48:00,37.5,31.7,29.87,North,-999,-999.0,-999.0,79,-99.99,,,-99.99,,2013-02-24 09:48:00,
2013-02-24 02:54:00,38.0,31.4,29.86,North,-999,-999.0,-999.0,77,-99.99,,,-99.99,,2013-02-24 09:54:00,
2013-02-24 03:00:00,37.9,31.6,29.86,North,-999,-999.0,-999.0,77,-99.99,,,-99.99,,2013-02-24 10:00:00,
2013-02-24 03:06:00,37.9,31.5,29.85,North,-999,-999.0,-999.0,77,-99.99,,,-99.99,,2013-02-24 10:06:00,
2013-02-24 03:12:00,37.4,31.5,29.85,North,-999,-999.0,-999.0,78,-99.99,,,-99.99,,2013-02-24 10:12:00,
2013-02-24 03:18:00,37.0,31.6,29.85,North,-999,-999.0,-999.0,80,-99.99,,,-99.99,,2013-02-24 10:18:00,
2013-02-24 03:24:00,37.4,31.6,29.85,North,-999,-999.0,-999.0,79,-99.99,,,-99.99,,2013-02-24 10:24:00,
2013-02-24 03:30:00,36.9,31.7,29.85,North,-999,-999.0,-999.0,81,-99.99,,,-99.99,,2013-02-24 10:30:00,
2013-02-24 03:36:00,37.6,31.6,29.84,North,-999,-999.0,-999.0,78,-99.99,,,-99.99,,2013-02-24 10:36:00,
2013-02-24 03:42:00,37.8,31.5,29.84,North,-999,-999.0,-999.0,77,-99.99,,,-99.99,,2013-02-24 10:42:00,
2013-02-24 03:48:00,37.5,31.7,29.85,North,-999,-999.0,-999.0,79,-99.99,,,-99.99,,2013-02-24 10:48:00,
2013-02-24 03:54:00,37.3,31.6,29.84,North,-999,-999.0,-999.0,79,-99.99,,,-99.99,,2013-02-24 10:54:00,
2013-02-24 04:00:00,37.1,31.5,29.84,North,-999,-999.0,-999.0,80,-99.99,,,-99.99,,2013-02-24 11:00:00,
2013-02-24 04:06:00,36.9,31.5,29.84,North,-999,-999.0,-999.0,80,-99.99,,,-99.99,,2013-02-24 11:06:00,
2013-02-24 04:12:00,36.3,31.9,29.84,North,-999,-999.0,-999.0,84,-99.99,,,-99.99,,2013-02-24 11:12:00,
2013-02-24 04:18:00,35.9,31.5,29.84,North,-999,-999.0,-999.0,83,-99.99,,,-99.99,,2013-02-24 11:18:00,
2013-02-24 04:24:00,36.6,31.3,29.84,North,-999,-999.0,-999.0,81,-99.99,,,-99.99,,2013-02-24 11:24:00,
2013-02-24 04:30:00,36.1,31.3,29.83,North,-999,-999.0,-999.0,82,-99.99,,,-99.99,,2013-02-24 11:30:00,
2013-02-24 04:36:00,35.8,31.3,29.83,North,-999,-999.0,-999.0,83,-99.99,,,-99.99,,2013-02-24 11:36:00,
2013-02-24 04:42:00,36.8,31.5,29.83,North,-999,-999.0,-999.0,81,-99.99,,,-99.99,,2013-02-24 11:42:00,
2013-02-24 04:48:00,37.5,31.4,29.84,North,-999,-999.0,-999.0,78,-99.99,,,-99.99,,2013-02-24 11:48:00,
2013-02-24 04:54:00,37.6,31.2,29.84,North,-999,-999.0,-999.0,77,-99.99,,,-99.99,,2013-02-24 11:54:00,
2013-02-24 05:00:00,38.2,31.2,29.84,North,-999,-999.0,-999.0,75,-99.99,,,-99.99,,2013-02-24 12:00:00,
2013-02-24 05:06:00,38.1,31.2,29.84,North,-999,-999.0,-999.0,76,-99.99,,,-99.99,,2013-02-24 12:06:00,
2013-02-24 05:12:00,37.7,31.1,29.84,North,-999,-999.0,-999.0,76,-99.99,,,-99.99,,2013-02-24 12:12:00,
2013-02-24 05:18:00,37.7,30.9,29.86,North,-999,-999.0,-999.0,76,-99.99,,,-99.99,,2013-02-24 12:18:00,
2013-02-24 05:24:00,38.7,30.0,29.85,North,-999,-999.0,-999.0,70,-99.99,,,-99.99,,2013-02-24 12:24:00,
2013-02-24 05:30:00,38.1,30.5,29.85,North,-999,-999.0,-999.0,73,-99.99,,,-99.99,,2013-02-24 12:30:00,
2013-02-24 05:36:00,38.7,30.5,29.85,North,-999,-999.0,-999.0,72,-99.99,,,-99.99,,2013-02-24 12:36:00,
2013-02-24 05:42:00,42.7,30.5,29.85,North,-999,-999.0,-999.0,61,-99.99,,,-99.99,,2013-02-24 12:42:00,
2013-02-24 05:48:00,43.9,30.5,29.86,North,-999,-999.0,-999.0,59,-99.99,,,-99.99,,2013-02-24 12:48:00,
2013-02-24 05:54:00,44.1,30.6,29.87,North,-999,-999.0,-999.0,58,-99.99,,,-99.99,,2013-02-24 12:54:00,
2013-02-24 06:00:00,43.7,30.7,29.89,North,-999,-999.0,-999.0,60,-99.99,,,-99.99,,2013-02-24 13:00:00,
2013-02-24 06:06:00,43.2,30.9,29.89,North,-999,-999.0,-999.0,61,-99.99,,,-99.99,,2013-02-24 13:06:00,
2013-02-24 06:12:00,43.0,30.9,29.88,North,-999,-999.0,-999.0,62,-99.99,,,-99.99,,2013-02-24 13:12:00,
2013-02-24 06:18:00,42.7,31.0,29.89,North,-999,-999.0,-999.0,63,-99.99,,,-99.99,,2013-02-24 13:18:00,
2013-02-24 06:24:00,42.3,31.1,29.88,North,-999,-999.0,-999.0,64,-99.99,,,-99.99,,2013-02-24 13:24:00,
2013-02-24 06:30:00,42.0,31.1,29.88,North,-999,-999.0,-999.0,65,-99.99,,,-99.99,,2013-02-24 13:30:00,
2013-02-24 06:36:00,42.0,31.0,29.89,North,-999,-999.0,-999.0,64,-99.99,,,-99.99,,2013-02-24 13:36:00,
2013-02-24 06:42:00,42.0,30.7,29.88,North,-999,-999.0,-999.0,64,-99.99,,,-99.99,,2013-02-24 13:42:00,
2013-02-24 06:48:00,41.8,30.7,29.89,North,-999,-999.0,-999.0,64,-99.99,,,-99.99,,2013-02-24 13:48:00,
2013-02-24 06:54:00,41.6,30.6,29.88,North,-999,-999.0,-999.0,64,-99.99,,,-99.99,,2013-02-24 13:54:00,
2013-02-24 07:00:00,42.0,30.5,29.89,North,-999,-999.0,-999.0,63,-99.99,,,-99.99,,2013-02-24 14:00:00,
2013-02-24 07:06:00,41.9,30.6,29.89,North,-999,-999.0,-999.0,64,-99.99,,,-99.99,,2013-02-24 14:06:00,
2013-02-24 07:12:00,41.6,30.5,29.88,North,-999,-999.0,-999.0,64,-99.99,,,-99.99,,2013-02-24 14:12:00,
2013-02-24 07:18:00,41.7,30.6,29.89,North,-999,-999.0,-999.0,64,-99.99,,,-99.99,,2013-02-24 14:18:00,
2013-02-24 07:24:00,41.8,30.8,29.90,North,-999,-999.0,-999.0,64,-99.99,,,-99.99,,2013-02-24 14:24:00,
2013-02-24 07:30:00,42.1,30.9,29.90,North,-999,-999.0,-999.0,64,-99.99,,,-99.99,,2013-02-24 14:30:00,
2013-02-24 07:36:00,42.2,31.2,29.89,North,-999,-999.0,-999.0,64,-99.99,,,-99.99,,2013-02-24 14:36:00,
2013-02-24 07:42:00,41.9,31.7,29.91,North,-999,-999.0,-999.0,66,-99.99,,,-99.99,,2013-02-24 14:42:00,
2013-02-24 07:48:00,42.0,31.8,29.91,North,-999,-999.0,-999.0,66,-99.99,,,-99.99,,2013-02-24 14:48:00,
2013-02-24 07:54:00,42.5,31.9,29.90,North,-999,-999.0,-999.0,65,-99.99,,,-99.99,,2013-02-24 14:54:00,
2013-02-24 08:00:00,42.9,31.4,29.91,North,-999,-999.0,-999.0,63,-99.99,,,-99.99,,2013-02-24 15:00:00,
2013-02-24 08:06:00,43.0,31.1,29.91,North,-999,-999.0,-999.0,62,-99.99,,,-99.99,,2013-02-24 15:06:00,
2013-02-24 08:12:00,43.2,30.9,29.92,North,-999,-999.0,-999.0,61,-99.99,,,-99.99,,2013-02-24 15:12:00,
2013-02-24 08:18:00,43.5,30.8,29.93,North,-999,-999.0,-999.0,60,-99.99,,,-99.99,,2013-02-24 15:18:00,
2013-02-24 08:24:00,43.9,29.9,29.94,North,-999,-999.0,-999.0,57,-99.99,,,-99.99,,2013-02-24 15:24:00,
2013-02-24 08:30:00,43.5,30.0,29.94,North,-999,-999.0,-999.0,58,-99.99,,,-99.99,,2013-02-24 15:30:00,
2013-02-24 08:36:00,43.2,30.2,29.93,North,-999,-999.0,-999.0,60,-99.99,,,-99.99,,2013-02-24 15:36:00,
2013-02-24 08:42:00,44.5,31.1,29.94,North,-999,-999.0,-999.0,59,-99.99,,,-99.99,,2013-02-24 15:42:00,
2013-02-24 08:48:00,45.6,31.0,29.94,North,-999,-999.0,-999.0,56,-99.99,,,-99.99,,2013-02-24 15:48:00,
2013-02-24 08:54:00,45.7,30.8,29.94,North,-999,-999.0,-999.0,55,-99.99,,,-99.99,,2013-02-24 15:54:00,
2013-02-24 09:00:00,46.5,31.5,29.94,North,-999,-999.0,-999.0,55,-99.99,,,-99.99,,2013-02-24 16:00:00,
2013-02-24 09:06:00,46.8,31.0,29.94,North,-999,-999.0,-999.0,53,-99.99,,,-99.99,,2013-02-24 16:06:00,
2013-02-24 09:12:00,47.1,30.7,29.94,North,-999,-999.0,-999.0,52,-99.99,,,-99.99,,2013-02-24 16:12:00,
2013-02-24 09:18:00,47.2,30.4,29.94,North,-999,-999.0,-999.0,51,-99.99,,,-99.99,,2013-02-24 16:18:00,
2013-02-24 09:24:00,47.8,30.4,29.94,North,-999,-999.0,-999.0,50,-99.99,,,-99.99,,2013-02-24 16:24:00,
2013-02-24 09:30:00,48.3,29.4,29.94,North,-999,-999.0,-999.0,47,-99.99,,,-99.99,,2013-02-24 16:30:00,
2013-02-24 09:36:00,48.1,27.1,29.93,North,-999,-999.0,-999.0,43,-99.99,,,-99.99,,2013-02-24 16:36:00,
2013-02-24 09:42:00,48.1,27.2,29.93,North,-999,-999.0,-999.0,43,-99.99,,,-99.99,,2013-02-24 16:42:00,
2013-02-24 09:48:00,48.2,27.3,29.95,North,-999,-999.0,-999.0,43,-99.99,,,-99.99,,2013-02-24 16:48:00,
2013-02-24 09:54:00,48.2,26.8,29.95,North,-999,-999.0,-999.0,43,-99.99,,,-99.99,,2013-02-24 16:54:00,
2013-02-24 10:00:00,48.4,27.8,29.94,North,-999,-999.0,-999.0,44,-99.99,,,-99.99,,2013-02-24 17:00:00,
2013-02-24 10:06:00,49.2,27.5,29.96,North,-999,-999.0,-999.0,42,-99.99,,,-99.99,,2013-02-24 17:06:00,
2013-02-24 10:12:00,48.9,26.5,29.95,North,-999,-999.0,-999.0,41,-99.99,,,-99.99,,2013-02-24 17:12:00,
2013-02-24 10:18:00,48.9,25.4,29.95,North,-999,-999.0,-999.0,39,-99.99,,,-99.99,,2013-02-24 17:18:00,
2013-02-24 10:24:00,49.6,26.2,29.94,North,-999,-999.0,-999.0,39,-99.99,,,-99.99,,2013-02-24 17:24:00,
2013-02-24 10:30:00,48.8,25.0,29.96,North,-999,-999.0,-999.0,39,-99.99,,,-99.99,,2013-02-24 17:30:00,
2013-02-24 10:36:00,49.0,23.6,29.97,North,-999,-999.0,-999.0,36,-99.99,,,-99.99,,2013-02-24 17:36:00,
2013-02-24 10:42:00,49.1,23.3,29.95,North,-999,-999.0,-999.0,35,-99.99,,,-99.99,,2013-02-24 17:42:00,
2013-02-24 10:48:00,50.0,22.7,29.95,North,-999,-999.0,-999.0,33,-99.99,,,-99.99,,2013-02-24 17:48:00,
2013-02-24 10:54:00,49.9,21.3,29.95,North,-999,-999.0,-999.0,32,-99.99,,,-99.99,,2013-02-24 17:54:00,
2013-02-24 11:00:00,50.2,21.5,29.95,North,-999,-999.0,-999.0,32,-99.99,,,-99.99,,2013-02-24 18:00:00,
2013-02-24 11:06:00,50.5,22.4,29.95,North,-999,-999.0,-999.0,32,-99.99,,,-99.99,,2013-02-24 18:06:00,
2013-02-24 11:12:00,50.8,22.4,29.95,North,-999,-999.0,-999.0,32,-99.99,,,-99.99,,2013-02-24 18:12:00,
2013-02-24 11:18:00,50.6,21.7,29.96,North,-999,-999.0,-999.0,31,-99.99,,,-99.99,,2013-02-24 18:18:00,
2013-02-24 11:24:00,50.8,22.1,29.96,North,-999,-999.0,-999.0,32,-99.99,,,-99.99,,2013-02-24 18:24:00,
2013-02-24 11:30:00,50.7,20.5,29.96,North,-999,-999.0,-999.0,30,-99.99,,,-99.99,,2013-02-24 18:30:00,
2013-02-24 11:36:00,51.0,20.0,29.96,North,-999,-999.0,-999.0,29,-99.99,,,-99.99,,2013-02-24 18:36:00,
2013-02-24 11:42:00,50.6,19.1,29.96,North,-999,-999.0,-999.0,28,-99.99,,,-99.99,,2013-02-24 18:42:00,
2013-02-24 11:48:00,50.7,17.6,29.97,North,-999,-999.0,-999.0,26,-99.99,,,-99.99,,2013-02-24 18:48:00,
2013-02-24 11:54:00,51.1,17.6,29.96,North,-999,-999.0,-999.0,26,-99.99,,,-99.99,,2013-02-24 18:54:00,
2013-02-24 12:00:00,51.6,17.2,29.97,North,-999,-999.0,-999.0,25,-99.99,,,-99.99,,2013-02-24 19:00:00,
2013-02-24 12:06:00,51.3,15.9,29.96,North,-999,-999.0,-999.0,24,-99.99,,,-99.99,,2013-02-24 19:06:00,
2013-02-24 12:12:00,51.8,16.7,29.96,North,-999,-999.0,-999.0,24,-99.99,,,-99.99,,2013-02-24 19:12:00,
2013-02-24 12:18:00,51.6,14.7,29.97,North,-999,-999.0,-999.0,22,-99.99,,,-99.99,,2013-02-24 19:18:00,
2013-02-24 12:24:00,51.5,14.1,29.96,North,-999,-999.0,-999.0,22,-99.99,,,-99.99,,2013-02-24 19:24:00,
2013-02-24 12:30:00,51.7,13.6,29.94,North,-999,-999.0,-999.0,21,-99.99,,,-99.99,,2013-02-24 19:30:00,
2013-02-24 12:36:00,51.5,13.1,29.95,North,-999,-999.0,-999.0,21,-99.99,,,-99.99,,2013-02-24 19:36:00,
2013-02-24 12:42:00,52.3,14.4,29.94,North,-999,-999.0,-999.0,21,-99.99,,,-99.99,,2013-02-24 19:42:00,
2013-02-24 12:48:00,51.6,15.2,29.95,North,-999,-999.0,-999.0,23,-99.99,,,-99.99,,2013-02-24 19:48:00,
2013-02-24 12:54:00,52.0,15.0,29.95,North,-999,-999.0,-999.0,22,-99.99,,,-99.99,,2013-02-24 19:54:00,
2013-02-24 13:00:00,52.2,16.0,29.94,North,-999,-999.0,-999.0,23,-99.99,,,-99.99,,2013-02-24 20:00:00,
2013-02-24 13:06:00,52.3,16.0,29.95,North,-999,-999.0,-999.0,23,-99.99,,,-99.99,,2013-02-24 20:06:00,
2013-02-24 13:12:00,51.7,15.6,29.97,North,-999,-999.0,-999.0,23,-99.99,,,-99.99,,2013-02-24 20:12:00,
2013-02-24 13:18:00,51.9,15.5,29.95,North,-999,-999.0,-999.0,23,-99.99,,,-99.99,,2013-02-24 20:18:00,
2013-02-24 13:24:00,52.4,15.0,29.96,North,-999,-999.0,-999.0,22,-99.99,,,-99.99,,2013-02-24 20:24:00,
2013-02-24 13:30:00,51.5,12.4,29.96,North,-999,-999.0,-999.0,20,-99.99,,,-99.99,,2013-02-24 20:30:00,
2013-02-24 13:36:00,51.4,11.1,29.95,North,-999,-999.0,-999.0,19,-99.99,,,-99.99,,2013-02-24 20:36:00,
2013-02-24 13:42:00,51.4,11.8,29.95,North,-999,-999.0,-999.0,20,-99.99,,,-99.99,,2013-02-24 20:42:00,
2013-02-24 13:48:00,51.5,11.7,29.95,North,-999,-999.0,-999.0,19,-99.99,,,-99.99,,2013-02-24 20:48:00,
2013-02-24 13:54:00,51.2,11.4,29.96,North,-999,-999.0,-999.0,19,-99.99,,,-99.99,,2013-02-24 20:54:00,
2013-02-24 14:00:00,51.9,11.7,29.97,North,-999,-999.0,-999.0,19,-99.99,,,-99.99,,2013-02-24 21:00:00,
2013-02-24 14:06:00,52.1,12.1,29.97,North,-999,-999.0,-999.0,19,-99.99,,,-99.99,,2013-02-24 21:06:00,
2013-02-24 14:12:00,51.9,11.2,29.97,North,-999,-999.0,-999.0,19,-99.99,,,-99.99,,2013-02-24 21:12:00,
2013-02-24 14:18:00,51.4,10.4,29.96,North,-999,-999.0,-999.0,18,-99.99,,,-99.99,,2013-02-24 21:18:00,
2013-02-24 14:24:00,51.4,10.9,29.94,North,-999,-999.0,-999.0,19,-99.99,,,-99.99,,2013-02-24 21:24:00,
2013-02-24 14:30:00,52.0,11.5,29.94,North,-999,-999.0,-999.0,19,-99.99,,,-99.99,,2013-02-24 21:30:00,
2013-02-24 14:36:00,51.8,11.6,29.94,North,-999,-999.0,-999.0,19,-99.99,,,-99.99,,2013-02-24 21:36:00,
2013-02-24 14:42:00,51.6,11.4,29.94,North,-999,-999.0,-999.0,19,-99.99,,,-99.99,,2013-02-24 21:42:00,
2013-02-24 14:48:00,52.2,11.7,29.96,North,-999,-999.0,-999.0,19,-99.99,,,-99.99,,2013-02-24 21:48:00,
2013-02-24 14:54:00,51.5,11.8,29.96,North,-999,-999.0,-999.0,20,-99.99,,,-99.99,,2013-02-24 21:54:00,
2013-02-24 15:00:00,51.1,11.9,29.97,North,-999,-999.0,-999.0,20,-99.99,,,-99.99,,2013-02-24 22:00:00,
2013-02-24 15:06:00,51.2,12.3,29.95,North,-999,-999.0,-999.0,20,-99.99,,,-99.99,,2013-02-24 22:06:00,
2013-02-24 15:12:00,51.2,12.3,29.94,North,-999,-999.0,-999.0,20,-99.99,,,-99.99,,2013-02-24 22:12:00,
2013-02-24 15:18:00,50.7,12.0,29.95,North,-999,-999.0,-999.0,20,-99.99,,,-99.99,,2013-02-24 22:18:00,
2013-02-24 15:24:00,50.9,12.7,29.96,North,-999,-999.0,-999.0,21,-99.99,,,-99.99,,2013-02-24 22:24:00,
2013-02-24 15:30:00,50.7,12.6,29.97,North,-999,-999.0,-999.0,21,-99.99,,,-99.99,,2013-02-24 22:30:00,
2013-02-24 15:36:00,50.6,12.3,29.97,North,-999,-999.0,-999.0,21,-99.99,,,-99.99,,2013-02-24 22:36:00,
2013-02-24 15:42:00,51.3,13.3,29.97,North,-999,-999.0,-999.0,21,-99.99,,,-99.99,,2013-02-24 22:42:00,
2013-02-24 15:48:00,51.7,13.1,29.97,North,-999,-999.0,-999.0,21,-99.99,,,-99.99,,2013-02-24 22:48:00,
2013-02-24 15:54:00,51.4,11.9,29.98,North,-999,-999.0,-999.0,20,-99.99,,,-99.99,,2013-02-24 22:54:00,
2013-02-24 16:00:00,51.2,11.8,29.99,North,-999,-999.0,-999.0,20,-99.99,,,-99.99,,2013-02-24 23:00:00,
2013-02-24 16:06:00,51.0,11.8,29.99,North,-999,-999.0,-999.0,20,-99.99,,,-99.99,,2013-02-24 23:06:00,
2013-02-24 16:12:00,50.3,11.2,29.97,North,-999,-999.0,-999.0,20,-99.99,,,-99.99,,2013-02-24 23:12:00,
2013-02-24 16:18:00,50.9,11.7,29.97,North,-999,-999.0,-999.0,20,-99.99,,,-99.99,,2013-02-24 23:18:00,
2013-02-24 16:24:00,50.7,11.4,29.98,North,-999,-999.0,-999.0,20,-99.99,,,-99.99,,2013-02-24 23:24:00,
2013-02-24 16:30:00,50.9,11.9,29.99,North,-999,-999.0,-999.0,20,-99.99,,,-99.99,,2013-02-24 23:30:00,
2013-02-24 16:36:00,50.8,11.5,29.99,North,-999,-999.0,-999.0,20,-99.99,,,-99.99,,2013-02-24 23:36:00,
2013-02-24 16:42:00,50.7,11.7,29.99,North,-999,-999.0,-999.0,20,-99.99,,,-99.99,,2013-02-24 23:42:00,
2013-02-24 16:48:00,51.0,12.1,29.99,North,-999,-999.0,-999.0,20,-99.99,,,-99.99,,2013-02-24 23:48:00,
2013-02-24 16:54:00,50.7,11.4,30.00,North,-999,-999.0,-999.0,20,-99.99,,,-99.99,,2013-02-24 23:54:00,
2013-02-24 17:00:00,50.5,11.4,30.00,North,-999,-999.0,-999.0,20,-99.99,,,-99.99,,2013-02-25 00:00:00,
2013-02-24 17:06:00,50.3,11.3,30.00,North,-999,-999.0,-999.0,20,-99.99,,,-99.99,,2013-02-25 00:06:00,
2013-02-24 17:12:00,50.2,11.3,29.98,North,-999,-999.0,-999.0,20,-99.99,,,-99.99,,2013-02-25 00:12:00,
2013-02-24 17:18:00,50.0,11.1,29.99,North,-999,-999.0,-999.0,20,-99.99,,,-99.99,,2013-02-25 00:18:00,
2013-02-24 17:24:00,49.8,10.7,29.99,North,-999,-999.0,-999.0,20,-99.99,,,-99.99,,2013-02-25 00:24:00,
2013-02-24 17:30:00,49.6,10.7,30.01,North,-999,-999.0,-999.0,20,-99.99,,,-99.99,,2013-02-25 00:30:00,
2013-02-24 17:36:00,49.4,10.4,30.02,North,-999,-999.0,-999.0,20,-99.99,,,-99.99,,2013-02-25 00:36:00,
2013-02-24 17:42:00,49.0,10.4,30.00,North,-999,-999.0,-999.0,20,-99.99,,,-99.99,,2013-02-25 00:42:00,
2013-02-24 17:48:00,48.7,10.0,30.02,North,-999,-999.0,-999.0,20,-99.99,,,-99.99,,2013-02-25 00:48:00,
2013-02-24 17:54:00,48.5,9.9,30.02,North,-999,-999.0,-999.0,20,-99.99,,,-99.99,,2013-02-25 00:54:00,
2013-02-24 18:00:00,48.2,10.1,30.02,North,-999,-999.0,-999.0,21,-99.99,,,-99.99,,2013-02-25 01:00:00,
2013-02-24 18:06:00,47.8,10.2,30.02,North,-999,-999.0,-999.0,21,-99.99,,,-99.99,,2013-02-25 01:06:00,
2013-02-24 18:12:00,47.6,9.6,30.02,North,-999,-999.0,-999.0,21,-99.99,,,-99.99,,2013-02-25 01:12:00,
2013-02-24 18:18:00,47.5,9.8,30.01,North,-999,-999.0,-999.0,21,-99.99,,,-99.99,,2013-02-25 01:18:00,
2013-02-24 18:24:00,47.3,9.9,30.02,North,-999,-999.0,-999.0,21,-99.99,,,-99.99,,2013-02-25 01:24:00,
2013-02-24 18:30:00,47.2,9.7,30.02,North,-999,-999.0,-999.0,21,-99.99,,,-99.99,,2013-02-25 01:30:00,
2013-02-24 18:36:00,47.2,9.7,30.03,North,-999,-999.0,-999.0,21,-99.99,,,-99.99,,2013-02-25 01:36:00,
2013-02-24 18:42:00,47.0,10.2,30.02,North,-999,-999.0,-999.0,22,-99.99,,,-99.99,,2013-02-25 01:42:00,
2013-02-24 18:48:00,46.9,9.7,30.02,North,-999,-999.0,-999.0,21,-99.99,,,-99.99,,2013-02-25 01:48:00,
2013-02-24 18:54:00,46.9,9.6,30.02,North,-999,-999.0,-999.0,21,-99.99,,,-99.99,,2013-02-25 01:54:00,
2013-02-24 19:00:00,46.7,10.1,30.02,North,-999,-999.0,-999.0,22,-99.99,,,-99.99,,2013-02-25 02:00:00,
2013-02-24 19:06:00,46.7,10.1,30.02,North,-999,-999.0,-999.0,22,-99.99,,,-99.99,,2013-02-25 02:06:00,
2013-02-24 19:12:00,46.4,10.3,30.02,North,-999,-999.0,-999.0,22,-99.99,,,-99.99,,2013-02-25 02:12:00,
2013-02-24 19:18:00,46.4,10.3,30.03,North,-999,-999.0,-999.0,22,-99.99,,,-99.99,,2013-02-25 02:18:00,
2013-02-24 19:24:00,46.4,10.1,30.03,North,-999,-999.0,-999.0,22,-99.99,,,-99.99,,2013-02-25 02:24:00,
2013-02-24 19:30:00,46.2,10.4,30.03,North,-999,-999.0,-999.0,23,-99.99,,,-99.99,,2013-02-25 02:30:00,
2013-02-24 19:36:00,46.3,10.0,30.03,North,-999,-999.0,-999.0,22,-99.99,,,-99.99,,2013-02-25 02:36:00,
2013-02-24 19:42:00,46.1,10.8,30.03,North,-999,-999.0,-999.0,23,-99.99,,,-99.99,,2013-02-25 02:42:00,
2013-02-24 19:48:00,46.0,10.5,30.03,North,-999,-999.0,-999.0,23,-99.99,,,-99.99,,2013-02-25 02:48:00,
2013-02-24 19:54:00,46.2,10.3,30.04,North,-999,-999.0,-999.0,22,-99.99,,,-99.99,,2013-02-25 02:54:00,
2013-02-24 20:00:00,46.3,10.3,30.04,North,-999,-999.0,-999.0,22,-99.99,,,-99.99,,2013-02-25 03:00:00,
2013-02-24 20:06:00,46.1,10.6,30.04,North,-999,-999.0,-999.0,23,-99.99,,,-99.99,,2013-02-25 03:06:00,
2013-02-24 20:12:00,46.0,10.4,30.03,North,-999,-999.0,-999.0,23,-99.99,,,-99.99,,2013-02-25 03:12:00,
2013-02-24 20:18:00,46.0,10.4,30.03,North,-999,-999.0,-999.0,23,-99.99,,,-99.99,,2013-02-25 03:18:00,
2013-02-24 20:24:00,46.1,10.5,30.04,North,-999,-999.0,-999.0,23,-99.99,,,-99.99,,2013-02-25 03:24:00,
2013-02-24 20:30:00,46.0,10.0,30.04,North,-999,-999.0,-999.0,22,-99.99,,,-99.99,,2013-02-25 03:30:00,
2013-02-24 20:36:00,46.5,10.1,30.04,North,-999,-999.0,-999.0,22,-99.99,,,-99.99,,2013-02-25 03:36:00,
2013-02-24 20:42:00,46.5,10.0,30.04,North,-999,-999.0,-999.0,22,-99.99,,,-99.99,,2013-02-25 03:42:00,
2013-02-24 20:48:00,46.5,9.9,30.04,North,-999,-999.0,-999.0,22,-99.99,,,-99.99,,2013-02-25 03:48:00,
2013-02-24 20:54:00,46.2,10.2,30.04,North,-999,-999.0,-999.0,22,-99.99,,,-99.99,,2013-02-25 03:54:00,
2013-02-24 21:00:00,44.5,12.9,30.04,North,-999,-999.0,-999.0,27,-99.99,,,-99.99,,2013-02-25 04:00:00,
2013-02-24 21:06:00,41.5,14.4,30.05,North,-999,-999.0,-999.0,32,-99.99,,,-99.99,,2013-02-25 04:06:00,
2013-02-24 21:12:00,40.3,14.8,30.05,North,-999,-999.0,-999.0,34,-99.99,,,-99.99,,2013-02-25 04:12:00,
2013-02-24 21:18:00,40.1,14.2,30.05,North,-999,-999.0,-999.0,34,-99.99,,,-99.99,,2013-02-25 04:18:00,
2013-02-24 21:24:00,39.8,14.6,30.05,North,-999,-999.0,-999.0,35,-99.99,,,-99.99,,2013-02-25 04:24:00,
2013-02-24 21:30:00,38.9,14.8,30.05,North,-999,-999.0,-999.0,36,-99.99,,,-99.99,,2013-02-25 04:30:00,
2013-02-24 21:36:00,38.0,14.9,30.05,North,-999,-999.0,-999.0,38,-99.99,,,-99.99,,2013-02-25 04:36:00,
2013-02-24 21:42:00,37.3,15.1,30.05,North,-999,-999.0,-999.0,39,-99.99,,,-99.99,,2013-02-25 04:42:00,
2013-02-24 21:48:00,37.5,15.4,30.05,North,-999,-999.0,-999.0,40,-99.99,,,-99.99,,2013-02-25 04:48:00,
2013-02-24 21:54:00,37.9,15.6,30.06,North,-999,-999.0,-999.0,39,-99.99,,,-99.99,,2013-02-25 04:54:00,
2013-02-24 22:00:00,37.1,16.1,30.06,North,-999,-999.0,-999.0,41,-99.99,,,-99.99,,2013-02-25 05:00:00,
2013-02-24 22:06:00,37.4,15.7,30.07,North,-999,-999.0,-999.0,40,-99.99,,,-99.99,,2013-02-25 05:06:00,
2013-02-24 22:12:00,36.8,16.4,30.05,North,-999,-999.0,-999.0,43,-99.99,,,-99.99,,2013-02-25 05:12:00,
2013-02-24 22:18:00,35.8,17.3,30.07,North,-999,-999.0,-999.0,46,-99.99,,,-99.99,,2013-02-25 05:18:00,
2013-02-24 22:24:00,35.0,17.6,30.07,North,-999,-999.0,-999.0,48,-99.99,,,-99.99,,2013-02-25 05:24:00,
2013-02-24 22:30:00,34.6,18.0,30.07,North,-999,-999.0,-999.0,50,-99.99,,,-99.99,,2013-02-25 05:30:00,
2013-02-24 22:36:00,35.0,17.8,30.07,North,-999,-999.0,-999.0,49,-99.99,,,-99.99,,2013-02-25 05:36:00,
2013-02-24 22:42:00,35.0,18.8,30.07,North,-999,-999.0,-999.0,51,-99.99,,,-99.99,,2013-02-25 05:42:00,
2013-02-24 22:48:00,34.6,17.9,30.08,North,-999,-999.0,-999.0,50,-99.99,,,-99.99,,2013-02-25 05:48:00,
2013-02-24 22:54:00,35.0,18.5,30.07,North,-999,-999.0,-999.0,50,-99.99,,,-99.99,,2013-02-25 05:54:00,
2013-02-24 23:00:00,34.5,18.0,30.07,North,-999,-999.0,-999.0,50,-99.99,,,-99.99,,2013-02-25 06:00:00,
2013-02-24 23:06:00,34.4,18.7,30.09,North,-999,-999.0,-999.0,52,-99.99,,,-99.99,,2013-02-25 06:06:00,
2013-02-24 23:12:00,33.8,18.8,30.08,North,-999,-999.0,-999.0,53,-99.99,,,-99.99,,2013-02-25 06:12:00,
2013-02-24 23:18:00,33.1,19.3,30.09,North,-999,-999.0,-999.0,56,-99.99,,,-99.99,,2013-02-25 06:18:00,
2013-02-24 23:24:00,33.1,19.2,30.09,North,-999,-999.0,-999.0,56,-99.99,,,-99.99,,2013-02-25 06:24:00,
2013-02-24 23:30:00,32.4,19.6,30.09,North,-999,-999.0,-999.0,59,-99.99,,,-99.99,,2013-02-25 06:30:00,
2013-02-24 23:36:00,32.3,19.0,30.09,North,-999,-999.0,-999.0,57,-99.99,,,-99.99,,2013-02-25 06:36:00,
2013-02-24 23:42:00,32.3,18.4,30.09,North,-999,-999.0,-999.0,56,-99.99,,,-99.99,,2013-02-25 06:42:00,
2013-02-24 23:48:00,33.2,17.8,30.09,North,-999,-999.0,-999.0,52,-99.99,,,-99.99,,2013-02-25 06:48:00,
2013-02-24 23:54:00,34.2,17.9,30.09,North,-999,-999.0,-999.0,51,-99.99,,,-99.99,,2013-02-25 06:54:00,